sensor_id;sensor_type;location;lat;lon;timestamp;P1;durP1;ratioP1;P2;durP2;ratioP2
26536;SDS011;14204;51.262;5.488;2023-04-29T00:01:05;72.50;;;42.20;;
26536;SDS011;14204;51.262;5.488;2023-04-29T00:03:31;74.60;;;42.53;;
26536;SDS011;14204;51.262;5.488;2023-04-29T00:05:57;78.47;;;42.17;;
26536;SDS011;14204;51.262;5.488;2023-04-29T00:08:24;70.50;;;39.85;;
26536;SDS011;14204;51.262;5.488;2023-04-29T00:10:50;71.70;;;40.58;;
26536;SDS011;14204;51.262;5.488;2023-04-29T00:13:15;66.10;;;37.40;;
26536;SDS011;14204;51.262;5.488;2023-04-29T00:15:41;72.30;;;44.25;;
26536;SDS011;14204;51.262;5.488;2023-04-29T00:18:08;75.38;;;43.30;;
26536;SDS011;14204;51.262;5.488;2023-04-29T00:20:34;82.13;;;43.80;;
26536;SDS011;14204;51.262;5.488;2023-04-29T00:23:02;70.03;;;39.85;;
26536;SDS011;14204;51.262;5.488;2023-04-29T00:25:29;76.75;;;43.38;;
26536;SDS011;14204;51.262;5.488;2023-04-29T00:27:55;84.65;;;45.38;;
26536;SDS011;14204;51.262;5.488;2023-04-29T00:30:23;76.03;;;43.35;;
26536;SDS011;14204;51.262;5.488;2023-04-29T00:32:49;78.65;;;44.15;;
26536;SDS011;14204;51.262;5.488;2023-04-29T00:35:15;84.95;;;46.47;;
26536;SDS011;14204;51.262;5.488;2023-04-29T00:37:41;84.90;;;48.95;;
26536;SDS011;14204;51.262;5.488;2023-04-29T00:40:07;89.05;;;48.63;;
26536;SDS011;14204;51.262;5.488;2023-04-29T00:42:34;90.45;;;50.50;;
26536;SDS011;14204;51.262;5.488;2023-04-29T00:45:00;81.60;;;46.15;;
26536;SDS011;14204;51.262;5.488;2023-04-29T00:47:26;94.20;;;54.30;;
26536;SDS011;14204;51.262;5.488;2023-04-29T00:49:51;98.25;;;54.15;;
26536;SDS011;14204;51.262;5.488;2023-04-29T00:52:17;89.75;;;52.22;;
26536;SDS011;14204;51.262;5.488;2023-04-29T00:54:44;102.22;;;55.42;;
26536;SDS011;14204;51.262;5.488;2023-04-29T00:57:10;100.93;;;54.78;;
26536;SDS011;14204;51.262;5.488;2023-04-29T00:59:36;106.53;;;59.33;;
26536;SDS011;14204;51.262;5.488;2023-04-29T01:02:03;98.25;;;54.10;;
26536;SDS011;14204;51.262;5.488;2023-04-29T01:04:29;88.20;;;53.78;;
26536;SDS011;14204;51.262;5.488;2023-04-29T01:15:04;101.15;;;55.70;;
26536;SDS011;14204;51.262;5.488;2023-04-29T01:17:47;95.90;;;51.47;;
26536;SDS011;14204;51.262;5.488;2023-04-29T01:20:19;88.43;;;51.55;;
26536;SDS011;14204;51.262;5.488;2023-04-29T01:22:47;94.70;;;54.08;;
26536;SDS011;14204;51.262;5.488;2023-04-29T01:25:13;97.55;;;52.03;;
26536;SDS011;14204;51.262;5.488;2023-04-29T01:38:46;86.78;;;50.70;;
26536;SDS011;14204;51.262;5.488;2023-04-29T01:42:02;87.20;;;50.10;;
26536;SDS011;14204;51.262;5.488;2023-04-29T01:44:12;86.63;;;50.47;;
26536;SDS011;14204;51.262;5.488;2023-04-29T01:46:44;76.03;;;45.33;;
26536;SDS011;14204;51.262;5.488;2023-04-29T01:49:14;76.95;;;44.03;;
26536;SDS011;14204;51.262;5.488;2023-04-29T01:51:43;75.18;;;45.28;;
26536;SDS011;14204;51.262;5.488;2023-04-29T01:54:09;71.88;;;42.97;;
26536;SDS011;14204;51.262;5.488;2023-04-29T01:56:35;74.70;;;42.20;;
26536;SDS011;14204;51.262;5.488;2023-04-29T01:59:00;75.43;;;43.97;;
26536;SDS011;14204;51.262;5.488;2023-04-29T02:01:26;79.32;;;43.22;;
26536;SDS011;14204;51.262;5.488;2023-04-29T02:03:52;80.93;;;46.03;;
26536;SDS011;14204;51.262;5.488;2023-04-29T02:06:18;72.57;;;43.03;;
26536;SDS011;14204;51.262;5.488;2023-04-29T02:08:43;78.38;;;47.75;;
26536;SDS011;14204;51.262;5.488;2023-04-29T02:11:09;78.60;;;47.70;;
26536;SDS011;14204;51.262;5.488;2023-04-29T02:13:35;73.57;;;43.03;;
26536;SDS011;14204;51.262;5.488;2023-04-29T02:16:07;75.57;;;45.70;;
26536;SDS011;14204;51.262;5.488;2023-04-29T02:18:34;66.28;;;39.72;;
26536;SDS011;14204;51.262;5.488;2023-04-29T02:21:00;63.17;;;38.00;;
26536;SDS011;14204;51.262;5.488;2023-04-29T02:23:26;56.00;;;35.22;;
26536;SDS011;14204;51.262;5.488;2023-04-29T02:25:52;59.05;;;35.45;;
26536;SDS011;14204;51.262;5.488;2023-04-29T02:28:18;57.40;;;34.40;;
26536;SDS011;14204;51.262;5.488;2023-04-29T02:30:43;54.88;;;35.20;;
26536;SDS011;14204;51.262;5.488;2023-04-29T02:33:09;57.40;;;35.33;;
26536;SDS011;14204;51.262;5.488;2023-04-29T02:35:35;56.25;;;35.75;;
26536;SDS011;14204;51.262;5.488;2023-04-29T02:38:01;60.67;;;34.72;;
26536;SDS011;14204;51.262;5.488;2023-04-29T02:40:27;60.08;;;33.42;;
26536;SDS011;14204;51.262;5.488;2023-04-29T02:42:53;56.97;;;33.00;;
26536;SDS011;14204;51.262;5.488;2023-04-29T02:45:18;57.05;;;32.67;;
26536;SDS011;14204;51.262;5.488;2023-04-29T02:47:44;53.03;;;31.40;;
26536;SDS011;14204;51.262;5.488;2023-04-29T02:50:10;54.60;;;32.13;;
26536;SDS011;14204;51.262;5.488;2023-04-29T02:52:35;56.33;;;33.63;;
26536;SDS011;14204;51.262;5.488;2023-04-29T02:55:01;58.60;;;34.38;;
26536;SDS011;14204;51.262;5.488;2023-04-29T02:57:27;61.45;;;32.35;;
26536;SDS011;14204;51.262;5.488;2023-04-29T02:59:54;59.60;;;33.17;;
26536;SDS011;14204;51.262;5.488;2023-04-29T03:02:19;59.88;;;34.38;;
26536;SDS011;14204;51.262;5.488;2023-04-29T03:04:45;65.53;;;34.63;;
26536;SDS011;14204;51.262;5.488;2023-04-29T03:07:11;62.10;;;35.38;;
26536;SDS011;14204;51.262;5.488;2023-04-29T03:09:36;67.28;;;37.20;;
26536;SDS011;14204;51.262;5.488;2023-04-29T03:12:02;70.32;;;37.38;;
26536;SDS011;14204;51.262;5.488;2023-04-29T03:14:28;68.38;;;36.70;;
26536;SDS011;14204;51.262;5.488;2023-04-29T03:16:54;69.13;;;37.58;;
26536;SDS011;14204;51.262;5.488;2023-04-29T03:19:20;68.72;;;36.97;;
26536;SDS011;14204;51.262;5.488;2023-04-29T03:21:46;72.60;;;40.08;;
26536;SDS011;14204;51.262;5.488;2023-04-29T03:24:12;82.53;;;41.42;;
26536;SDS011;14204;51.262;5.488;2023-04-29T03:26:38;78.07;;;39.33;;
26536;SDS011;14204;51.262;5.488;2023-04-29T03:29:04;76.05;;;40.38;;
26536;SDS011;14204;51.262;5.488;2023-04-29T03:31:30;80.40;;;42.75;;
26536;SDS011;14204;51.262;5.488;2023-04-29T03:33:55;85.78;;;44.05;;
26536;SDS011;14204;51.262;5.488;2023-04-29T03:36:21;85.03;;;43.33;;
26536;SDS011;14204;51.262;5.488;2023-04-29T03:38:47;84.07;;;43.67;;
26536;SDS011;14204;51.262;5.488;2023-04-29T03:41:12;85.88;;;43.92;;
26536;SDS011;14204;51.262;5.488;2023-04-29T03:43:38;88.60;;;43.40;;
26536;SDS011;14204;51.262;5.488;2023-04-29T03:46:04;81.57;;;42.97;;
26536;SDS011;14204;51.262;5.488;2023-04-29T03:48:30;83.60;;;46.55;;
26536;SDS011;14204;51.262;5.488;2023-04-29T03:50:56;95.50;;;47.40;;
26536;SDS011;14204;51.262;5.488;2023-04-29T03:53:22;92.65;;;45.70;;
26536;SDS011;14204;51.262;5.488;2023-04-29T03:55:50;86.38;;;45.50;;
26536;SDS011;14204;51.262;5.488;2023-04-29T03:58:15;80.72;;;42.85;;
26536;SDS011;14204;51.262;5.488;2023-04-29T04:00:41;81.00;;;41.90;;
26536;SDS011;14204;51.262;5.488;2023-04-29T04:03:07;81.95;;;44.05;;
26536;SDS011;14204;51.262;5.488;2023-04-29T04:05:33;73.05;;;40.17;;
26536;SDS011;14204;51.262;5.488;2023-04-29T04:07:58;77.43;;;40.47;;
26536;SDS011;14204;51.262;5.488;2023-04-29T04:10:24;73.50;;;39.58;;
26536;SDS011;14204;51.262;5.488;2023-04-29T04:12:50;73.68;;;38.95;;
26536;SDS011;14204;51.262;5.488;2023-04-29T04:15:16;67.00;;;39.10;;
26536;SDS011;14204;51.262;5.488;2023-04-29T04:17:42;65.63;;;35.92;;
26536;SDS011;14204;51.262;5.488;2023-04-29T04:20:07;68.35;;;37.95;;
26536;SDS011;14204;51.262;5.488;2023-04-29T04:22:33;71.53;;;39.90;;
26536;SDS011;14204;51.262;5.488;2023-04-29T04:24:59;70.35;;;37.60;;
26536;SDS011;14204;51.262;5.488;2023-04-29T04:27:25;72.93;;;37.22;;
26536;SDS011;14204;51.262;5.488;2023-04-29T04:29:53;67.25;;;36.65;;
26536;SDS011;14204;51.262;5.488;2023-04-29T04:32:20;61.88;;;36.17;;
26536;SDS011;14204;51.262;5.488;2023-04-29T04:34:48;70.95;;;37.40;;
26536;SDS011;14204;51.262;5.488;2023-04-29T04:37:14;71.82;;;38.22;;
26536;SDS011;14204;51.262;5.488;2023-04-29T04:39:40;65.88;;;38.63;;
26536;SDS011;14204;51.262;5.488;2023-04-29T04:42:06;76.70;;;36.35;;
26536;SDS011;14204;51.262;5.488;2023-04-29T04:44:31;67.70;;;36.65;;
26536;SDS011;14204;51.262;5.488;2023-04-29T04:46:57;69.07;;;36.28;;
26536;SDS011;14204;51.262;5.488;2023-04-29T04:49:25;69.50;;;36.22;;
26536;SDS011;14204;51.262;5.488;2023-04-29T04:51:51;68.43;;;38.78;;
26536;SDS011;14204;51.262;5.488;2023-04-29T04:54:17;65.88;;;35.30;;
26536;SDS011;14204;51.262;5.488;2023-04-29T04:56:43;64.57;;;35.72;;
26536;SDS011;14204;51.262;5.488;2023-04-29T04:59:09;62.08;;;34.70;;
26536;SDS011;14204;51.262;5.488;2023-04-29T05:01:34;70.22;;;35.88;;
26536;SDS011;14204;51.262;5.488;2023-04-29T05:04:00;74.35;;;34.85;;
26536;SDS011;14204;51.262;5.488;2023-04-29T05:06:27;72.20;;;38.10;;
26536;SDS011;14204;51.262;5.488;2023-04-29T05:08:53;77.18;;;39.90;;
26536;SDS011;14204;51.262;5.488;2023-04-29T05:11:22;71.25;;;38.95;;
26536;SDS011;14204;51.262;5.488;2023-04-29T05:13:48;70.35;;;37.63;;
26536;SDS011;14204;51.262;5.488;2023-04-29T05:16:13;64.88;;;37.05;;
26536;SDS011;14204;51.262;5.488;2023-04-29T05:18:41;71.72;;;38.47;;
26536;SDS011;14204;51.262;5.488;2023-04-29T05:21:09;72.80;;;36.58;;
26536;SDS011;14204;51.262;5.488;2023-04-29T05:23:35;71.80;;;38.75;;
26536;SDS011;14204;51.262;5.488;2023-04-29T05:26:00;74.55;;;37.33;;
26536;SDS011;14204;51.262;5.488;2023-04-29T05:28:26;72.55;;;39.88;;
26536;SDS011;14204;51.262;5.488;2023-04-29T05:30:52;70.03;;;37.05;;
26536;SDS011;14204;51.262;5.488;2023-04-29T05:33:18;73.05;;;37.17;;
26536;SDS011;14204;51.262;5.488;2023-04-29T05:35:44;73.72;;;36.67;;
26536;SDS011;14204;51.262;5.488;2023-04-29T05:38:10;72.10;;;40.05;;
26536;SDS011;14204;51.262;5.488;2023-04-29T05:40:36;71.47;;;37.38;;
26536;SDS011;14204;51.262;5.488;2023-04-29T05:43:02;69.53;;;37.33;;
26536;SDS011;14204;51.262;5.488;2023-04-29T05:45:28;64.00;;;36.13;;
26536;SDS011;14204;51.262;5.488;2023-04-29T05:47:53;64.00;;;33.92;;
26536;SDS011;14204;51.262;5.488;2023-04-29T05:50:19;66.30;;;35.13;;
26536;SDS011;14204;51.262;5.488;2023-04-29T05:52:45;67.93;;;36.17;;
26536;SDS011;14204;51.262;5.488;2023-04-29T05:55:11;67.93;;;36.78;;
26536;SDS011;14204;51.262;5.488;2023-04-29T05:57:36;66.45;;;36.00;;
26536;SDS011;14204;51.262;5.488;2023-04-29T06:00:02;66.15;;;35.05;;
26536;SDS011;14204;51.262;5.488;2023-04-29T06:02:28;68.32;;;33.63;;
26536;SDS011;14204;51.262;5.488;2023-04-29T06:04:55;69.43;;;36.40;;
26536;SDS011;14204;51.262;5.488;2023-04-29T06:07:20;69.32;;;35.53;;
26536;SDS011;14204;51.262;5.488;2023-04-29T06:09:47;61.40;;;32.90;;
26536;SDS011;14204;51.262;5.488;2023-04-29T06:12:12;60.00;;;33.08;;
26536;SDS011;14204;51.262;5.488;2023-04-29T06:14:38;59.10;;;32.78;;
26536;SDS011;14204;51.262;5.488;2023-04-29T06:17:04;65.60;;;33.78;;
26536;SDS011;14204;51.262;5.488;2023-04-29T06:19:30;59.55;;;33.08;;
26536;SDS011;14204;51.262;5.488;2023-04-29T06:21:57;56.13;;;32.08;;
26536;SDS011;14204;51.262;5.488;2023-04-29T06:24:23;61.90;;;32.13;;
26536;SDS011;14204;51.262;5.488;2023-04-29T06:26:48;58.33;;;31.77;;
26536;SDS011;14204;51.262;5.488;2023-04-29T06:29:14;57.83;;;33.15;;
26536;SDS011;14204;51.262;5.488;2023-04-29T06:31:40;57.72;;;33.92;;
26536;SDS011;14204;51.262;5.488;2023-04-29T06:34:06;53.92;;;30.70;;
26536;SDS011;14204;51.262;5.488;2023-04-29T06:36:32;59.15;;;32.13;;
26536;SDS011;14204;51.262;5.488;2023-04-29T06:38:58;58.42;;;30.10;;
26536;SDS011;14204;51.262;5.488;2023-04-29T06:41:23;58.45;;;31.15;;
26536;SDS011;14204;51.262;5.488;2023-04-29T06:43:49;55.28;;;32.15;;
26536;SDS011;14204;51.262;5.488;2023-04-29T06:46:15;61.50;;;32.40;;
26536;SDS011;14204;51.262;5.488;2023-04-29T06:48:41;58.05;;;32.05;;
26536;SDS011;14204;51.262;5.488;2023-04-29T06:51:07;54.45;;;31.95;;
26536;SDS011;14204;51.262;5.488;2023-04-29T06:53:32;55.60;;;32.10;;
26536;SDS011;14204;51.262;5.488;2023-04-29T06:55:58;55.75;;;30.13;;
26536;SDS011;14204;51.262;5.488;2023-04-29T06:58:24;51.10;;;29.63;;
26536;SDS011;14204;51.262;5.488;2023-04-29T07:00:49;55.35;;;31.27;;
26536;SDS011;14204;51.262;5.488;2023-04-29T07:03:16;52.80;;;30.30;;
26536;SDS011;14204;51.262;5.488;2023-04-29T07:05:43;59.78;;;32.88;;
26536;SDS011;14204;51.262;5.488;2023-04-29T07:08:12;53.83;;;31.42;;
26536;SDS011;14204;51.262;5.488;2023-04-29T07:10:39;49.58;;;30.15;;
26536;SDS011;14204;51.262;5.488;2023-04-29T07:13:05;54.10;;;31.88;;
26536;SDS011;14204;51.262;5.488;2023-04-29T07:15:35;54.70;;;31.90;;
26536;SDS011;14204;51.262;5.488;2023-04-29T07:18:04;54.47;;;30.70;;
26536;SDS011;14204;51.262;5.488;2023-04-29T07:20:30;47.55;;;28.45;;
26536;SDS011;14204;51.262;5.488;2023-04-29T07:22:59;59.85;;;33.05;;
26536;SDS011;14204;51.262;5.488;2023-04-29T07:25:25;48.55;;;30.10;;
26536;SDS011;14204;51.262;5.488;2023-04-29T07:27:55;46.17;;;28.83;;
26536;SDS011;14204;51.262;5.488;2023-04-29T07:30:21;61.13;;;32.67;;
26536;SDS011;14204;51.262;5.488;2023-04-29T07:32:47;54.25;;;31.52;;
26536;SDS011;14204;51.262;5.488;2023-04-29T07:35:13;50.70;;;31.33;;
26536;SDS011;14204;51.262;5.488;2023-04-29T07:37:39;54.75;;;31.02;;
26536;SDS011;14204;51.262;5.488;2023-04-29T07:40:05;48.22;;;29.35;;
26536;SDS011;14204;51.262;5.488;2023-04-29T07:42:31;53.65;;;30.10;;
26536;SDS011;14204;51.262;5.488;2023-04-29T07:44:57;48.88;;;28.23;;
26536;SDS011;14204;51.262;5.488;2023-04-29T07:47:23;53.15;;;29.65;;
26536;SDS011;14204;51.262;5.488;2023-04-29T07:49:49;55.58;;;31.10;;
26536;SDS011;14204;51.262;5.488;2023-04-29T07:52:14;47.40;;;28.90;;
26536;SDS011;14204;51.262;5.488;2023-04-29T07:54:41;51.03;;;30.83;;
26536;SDS011;14204;51.262;5.488;2023-04-29T07:57:06;52.13;;;31.77;;
26536;SDS011;14204;51.262;5.488;2023-04-29T07:59:32;46.95;;;28.20;;
26536;SDS011;14204;51.262;5.488;2023-04-29T08:02:01;46.35;;;29.45;;
26536;SDS011;14204;51.262;5.488;2023-04-29T08:04:32;55.50;;;30.67;;
26536;SDS011;14204;51.262;5.488;2023-04-29T08:06:57;48.35;;;29.35;;
26536;SDS011;14204;51.262;5.488;2023-04-29T08:09:23;49.67;;;29.20;;
26536;SDS011;14204;51.262;5.488;2023-04-29T08:11:49;47.72;;;29.38;;
26536;SDS011;14204;51.262;5.488;2023-04-29T08:14:14;46.05;;;28.27;;
26536;SDS011;14204;51.262;5.488;2023-04-29T08:16:40;51.17;;;30.63;;
26536;SDS011;14204;51.262;5.488;2023-04-29T08:19:06;44.30;;;26.58;;
26536;SDS011;14204;51.262;5.488;2023-04-29T08:21:31;38.58;;;25.45;;
26536;SDS011;14204;51.262;5.488;2023-04-29T08:23:58;43.90;;;26.70;;
26536;SDS011;14204;51.262;5.488;2023-04-29T08:26:24;44.22;;;28.30;;
26536;SDS011;14204;51.262;5.488;2023-04-29T08:28:50;44.92;;;26.95;;
26536;SDS011;14204;51.262;5.488;2023-04-29T08:31:19;45.60;;;26.90;;
26536;SDS011;14204;51.262;5.488;2023-04-29T08:33:45;42.17;;;25.77;;
26536;SDS011;14204;51.262;5.488;2023-04-29T08:36:11;42.13;;;25.08;;
26536;SDS011;14204;51.262;5.488;2023-04-29T08:38:37;40.17;;;25.30;;
26536;SDS011;14204;51.262;5.488;2023-04-29T08:41:03;37.10;;;24.67;;
26536;SDS011;14204;51.262;5.488;2023-04-29T08:43:34;34.30;;;23.00;;
26536;SDS011;14204;51.262;5.488;2023-04-29T08:46:04;37.10;;;23.52;;
26536;SDS011;14204;51.262;5.488;2023-04-29T08:48:30;31.52;;;21.25;;
26536;SDS011;14204;51.262;5.488;2023-04-29T08:50:58;35.03;;;23.13;;
26536;SDS011;14204;51.262;5.488;2023-04-29T08:53:25;33.97;;;23.73;;
26536;SDS011;14204;51.262;5.488;2023-04-29T08:55:51;45.67;;;27.75;;
26536;SDS011;14204;51.262;5.488;2023-04-29T08:58:19;40.38;;;26.02;;
26536;SDS011;14204;51.262;5.488;2023-04-29T09:00:46;35.63;;;23.58;;
26536;SDS011;14204;51.262;5.488;2023-04-29T09:03:23;34.22;;;24.20;;
26536;SDS011;14204;51.262;5.488;2023-04-29T09:05:52;39.85;;;24.65;;
26536;SDS011;14204;51.262;5.488;2023-04-29T09:08:20;39.58;;;25.80;;
26536;SDS011;14204;51.262;5.488;2023-04-29T09:10:50;36.08;;;24.55;;
26536;SDS011;14204;51.262;5.488;2023-04-29T09:15:53;41.20;;;23.63;;
26536;SDS011;14204;51.262;5.488;2023-04-29T09:21:25;34.70;;;23.93;;
26536;SDS011;14204;51.262;5.488;2023-04-29T09:23:52;37.88;;;22.92;;
26536;SDS011;14204;51.262;5.488;2023-04-29T09:26:19;40.40;;;23.17;;
26536;SDS011;14204;51.262;5.488;2023-04-29T09:28:46;31.60;;;21.42;;
26536;SDS011;14204;51.262;5.488;2023-04-29T09:31:13;34.70;;;23.70;;
26536;SDS011;14204;51.262;5.488;2023-04-29T09:33:49;34.30;;;22.40;;
26536;SDS011;14204;51.262;5.488;2023-04-29T09:39:22;35.33;;;22.40;;
26536;SDS011;14204;51.262;5.488;2023-04-29T09:44:17;33.80;;;21.42;;
26536;SDS011;14204;51.262;5.488;2023-04-29T09:46:54;31.17;;;21.88;;
26536;SDS011;14204;51.262;5.488;2023-04-29T09:49:31;33.63;;;20.77;;
26536;SDS011;14204;51.262;5.488;2023-04-29T09:52:03;33.17;;;22.40;;
26536;SDS011;14204;51.262;5.488;2023-04-29T09:54:31;33.22;;;21.48;;
26536;SDS011;14204;51.262;5.488;2023-04-29T09:56:59;32.90;;;22.83;;
26536;SDS011;14204;51.262;5.488;2023-04-29T09:59:26;33.08;;;20.38;;
26536;SDS011;14204;51.262;5.488;2023-04-29T10:01:55;30.25;;;21.40;;
26536;SDS011;14204;51.262;5.488;2023-04-29T10:04:23;26.85;;;19.27;;
26536;SDS011;14204;51.262;5.488;2023-04-29T10:06:51;29.27;;;18.88;;
26536;SDS011;14204;51.262;5.488;2023-04-29T10:09:19;30.20;;;20.80;;
26536;SDS011;14204;51.262;5.488;2023-04-29T10:11:48;26.63;;;19.58;;
26536;SDS011;14204;51.262;5.488;2023-04-29T10:14:22;27.65;;;20.10;;
26536;SDS011;14204;51.262;5.488;2023-04-29T10:17:01;30.15;;;18.60;;
26536;SDS011;14204;51.262;5.488;2023-04-29T10:19:44;26.85;;;19.73;;
26536;SDS011;14204;51.262;5.488;2023-04-29T10:22:28;27.65;;;18.42;;
26536;SDS011;14204;51.262;5.488;2023-04-29T10:25:10;22.88;;;17.63;;
26536;SDS011;14204;51.262;5.488;2023-04-29T10:27:38;24.50;;;17.38;;
26536;SDS011;14204;51.262;5.488;2023-04-29T10:30:08;28.05;;;17.00;;
26536;SDS011;14204;51.262;5.488;2023-04-29T10:32:41;23.52;;;16.13;;
26536;SDS011;14204;51.262;5.488;2023-04-29T10:35:09;21.73;;;16.58;;
26536;SDS011;14204;51.262;5.488;2023-04-29T10:37:36;26.45;;;18.67;;
26536;SDS011;14204;51.262;5.488;2023-04-29T10:40:13;23.92;;;16.88;;
26536;SDS011;14204;51.262;5.488;2023-04-29T10:42:47;24.38;;;16.60;;
26536;SDS011;14204;51.262;5.488;2023-04-29T10:53:14;21.83;;;13.27;;
26536;SDS011;14204;51.262;5.488;2023-04-29T10:55:40;21.15;;;14.20;;
26536;SDS011;14204;51.262;5.488;2023-04-29T11:00:58;21.23;;;14.52;;
26536;SDS011;14204;51.262;5.488;2023-04-29T11:06:12;23.40;;;14.32;;
26536;SDS011;14204;51.262;5.488;2023-04-29T11:08:38;20.58;;;13.02;;
26536;SDS011;14204;51.262;5.488;2023-04-29T11:11:04;22.77;;;13.57;;
26536;SDS011;14204;51.262;5.488;2023-04-29T11:13:36;17.88;;;13.02;;
26536;SDS011;14204;51.262;5.488;2023-04-29T11:16:07;28.80;;;12.75;;
26536;SDS011;14204;51.262;5.488;2023-04-29T11:18:36;21.05;;;12.85;;
26536;SDS011;14204;51.262;5.488;2023-04-29T11:21:33;20.42;;;13.55;;
26536;SDS011;14204;51.262;5.488;2023-04-29T11:24:02;17.48;;;12.07;;
26536;SDS011;14204;51.262;5.488;2023-04-29T11:26:33;20.10;;;13.15;;
26536;SDS011;14204;51.262;5.488;2023-04-29T11:29:00;23.65;;;13.55;;
26536;SDS011;14204;51.262;5.488;2023-04-29T11:31:29;17.63;;;12.85;;
26536;SDS011;14204;51.262;5.488;2023-04-29T11:33:58;15.90;;;11.88;;
26536;SDS011;14204;51.262;5.488;2023-04-29T11:36:24;15.85;;;11.82;;
26536;SDS011;14204;51.262;5.488;2023-04-29T11:38:51;21.08;;;13.43;;
26536;SDS011;14204;51.262;5.488;2023-04-29T11:41:17;19.48;;;13.23;;
26536;SDS011;14204;51.262;5.488;2023-04-29T11:43:45;16.60;;;12.40;;
26536;SDS011;14204;51.262;5.488;2023-04-29T11:46:12;19.50;;;12.73;;
26536;SDS011;14204;51.262;5.488;2023-04-29T11:48:48;16.00;;;11.43;;
26536;SDS011;14204;51.262;5.488;2023-04-29T11:51:14;14.60;;;11.65;;
26536;SDS011;14204;51.262;5.488;2023-04-29T11:53:41;15.40;;;10.80;;
26536;SDS011;14204;51.262;5.488;2023-04-29T11:56:08;18.40;;;11.77;;
26536;SDS011;14204;51.262;5.488;2023-04-29T11:58:35;16.95;;;11.88;;
26536;SDS011;14204;51.262;5.488;2023-04-29T12:01:01;19.35;;;12.32;;
26536;SDS011;14204;51.262;5.488;2023-04-29T12:03:32;16.55;;;11.20;;
26536;SDS011;14204;51.262;5.488;2023-04-29T12:05:58;20.75;;;12.50;;
26536;SDS011;14204;51.262;5.488;2023-04-29T12:08:26;18.40;;;12.82;;
26536;SDS011;14204;51.262;5.488;2023-04-29T12:10:59;18.73;;;12.93;;
26536;SDS011;14204;51.262;5.488;2023-04-29T12:13:26;18.73;;;11.60;;
26536;SDS011;14204;51.262;5.488;2023-04-29T12:15:54;17.55;;;11.85;;
26536;SDS011;14204;51.262;5.488;2023-04-29T12:18:21;17.33;;;11.98;;
26536;SDS011;14204;51.262;5.488;2023-04-29T12:20:48;17.77;;;12.50;;
26536;SDS011;14204;51.262;5.488;2023-04-29T12:23:18;16.65;;;12.10;;
26536;SDS011;14204;51.262;5.488;2023-04-29T12:25:55;18.77;;;12.93;;
26536;SDS011;14204;51.262;5.488;2023-04-29T12:28:22;14.73;;;11.98;;
26536;SDS011;14204;51.262;5.488;2023-04-29T12:30:49;19.52;;;13.05;;
26536;SDS011;14204;51.262;5.488;2023-04-29T12:33:18;18.73;;;13.30;;
26536;SDS011;14204;51.262;5.488;2023-04-29T12:35:46;20.38;;;12.75;;
26536;SDS011;14204;51.262;5.488;2023-04-29T12:38:20;19.40;;;12.23;;
26536;SDS011;14204;51.262;5.488;2023-04-29T12:40:57;16.90;;;11.38;;
26536;SDS011;14204;51.262;5.488;2023-04-29T12:43:25;19.63;;;11.85;;
26536;SDS011;14204;51.262;5.488;2023-04-29T12:45:53;18.70;;;11.82;;
26536;SDS011;14204;51.262;5.488;2023-04-29T12:48:29;14.98;;;10.80;;
26536;SDS011;14204;51.262;5.488;2023-04-29T12:50:59;14.75;;;10.63;;
26536;SDS011;14204;51.262;5.488;2023-04-29T12:53:28;18.00;;;11.10;;
26536;SDS011;14204;51.262;5.488;2023-04-29T12:55:55;12.70;;;10.30;;
26536;SDS011;14204;51.262;5.488;2023-04-29T12:58:21;13.55;;;10.77;;
26536;SDS011;14204;51.262;5.488;2023-04-29T13:00:47;17.52;;;11.43;;
26536;SDS011;14204;51.262;5.488;2023-04-29T13:03:13;15.65;;;10.35;;
26536;SDS011;14204;51.262;5.488;2023-04-29T13:05:39;13.75;;;10.13;;
26536;SDS011;14204;51.262;5.488;2023-04-29T13:08:05;16.38;;;11.25;;
26536;SDS011;14204;51.262;5.488;2023-04-29T13:10:32;13.65;;;9.98;;
26536;SDS011;14204;51.262;5.488;2023-04-29T13:12:58;16.70;;;10.88;;
26536;SDS011;14204;51.262;5.488;2023-04-29T13:15:25;14.45;;;10.52;;
26536;SDS011;14204;51.262;5.488;2023-04-29T13:17:51;13.05;;;10.20;;
26536;SDS011;14204;51.262;5.488;2023-04-29T13:20:17;18.83;;;11.48;;
26536;SDS011;14204;51.262;5.488;2023-04-29T13:22:43;16.05;;;10.60;;
26536;SDS011;14204;51.262;5.488;2023-04-29T13:25:09;16.52;;;10.35;;
26536;SDS011;14204;51.262;5.488;2023-04-29T13:27:40;16.95;;;10.77;;
26536;SDS011;14204;51.262;5.488;2023-04-29T13:30:06;24.70;;;11.32;;
26536;SDS011;14204;51.262;5.488;2023-04-29T13:32:32;12.45;;;10.07;;
26536;SDS011;14204;51.262;5.488;2023-04-29T13:34:58;14.85;;;9.35;;
26536;SDS011;14204;51.262;5.488;2023-04-29T13:37:24;12.30;;;9.85;;
26536;SDS011;14204;51.262;5.488;2023-04-29T13:39:50;14.65;;;9.65;;
26536;SDS011;14204;51.262;5.488;2023-04-29T13:42:16;13.68;;;9.40;;
26536;SDS011;14204;51.262;5.488;2023-04-29T13:44:42;12.00;;;9.95;;
26536;SDS011;14204;51.262;5.488;2023-04-29T13:47:17;12.38;;;9.63;;
26536;SDS011;14204;51.262;5.488;2023-04-29T13:49:43;11.68;;;9.73;;
26536;SDS011;14204;51.262;5.488;2023-04-29T13:52:09;12.00;;;9.27;;
26536;SDS011;14204;51.262;5.488;2023-04-29T13:54:35;13.70;;;10.25;;
26536;SDS011;14204;51.262;5.488;2023-04-29T13:57:01;14.90;;;9.98;;
26536;SDS011;14204;51.262;5.488;2023-04-29T13:59:31;13.93;;;8.80;;
26536;SDS011;14204;51.262;5.488;2023-04-29T14:01:57;14.05;;;8.93;;
26536;SDS011;14204;51.262;5.488;2023-04-29T14:04:24;13.48;;;9.85;;
26536;SDS011;14204;51.262;5.488;2023-04-29T14:06:50;12.00;;;9.32;;
26536;SDS011;14204;51.262;5.488;2023-04-29T14:09:16;14.80;;;8.70;;
26536;SDS011;14204;51.262;5.488;2023-04-29T14:11:44;13.88;;;9.93;;
26536;SDS011;14204;51.262;5.488;2023-04-29T14:14:14;9.75;;;8.63;;
26536;SDS011;14204;51.262;5.488;2023-04-29T14:16:40;12.25;;;8.45;;
26536;SDS011;14204;51.262;5.488;2023-04-29T14:19:06;11.88;;;8.43;;
26536;SDS011;14204;51.262;5.488;2023-04-29T14:21:32;10.10;;;8.63;;
26536;SDS011;14204;51.262;5.488;2023-04-29T14:23:59;17.13;;;9.98;;
26536;SDS011;14204;51.262;5.488;2023-04-29T14:26:26;11.95;;;9.25;;
26536;SDS011;14204;51.262;5.488;2023-04-29T14:28:53;13.82;;;8.40;;
26536;SDS011;14204;51.262;5.488;2023-04-29T14:31:22;11.88;;;9.00;;
26536;SDS011;14204;51.262;5.488;2023-04-29T14:33:48;12.40;;;8.55;;
26536;SDS011;14204;51.262;5.488;2023-04-29T14:36:15;21.20;;;9.05;;
26536;SDS011;14204;51.262;5.488;2023-04-29T14:38:41;12.30;;;9.35;;
26536;SDS011;14204;51.262;5.488;2023-04-29T14:41:07;13.23;;;9.73;;
26536;SDS011;14204;51.262;5.488;2023-04-29T14:43:32;14.48;;;9.98;;
26536;SDS011;14204;51.262;5.488;2023-04-29T14:45:59;10.55;;;8.55;;
26536;SDS011;14204;51.262;5.488;2023-04-29T14:48:25;12.02;;;7.97;;
26536;SDS011;14204;51.262;5.488;2023-04-29T14:50:50;12.77;;;8.02;;
26536;SDS011;14204;51.262;5.488;2023-04-29T14:53:16;9.52;;;7.50;;
26536;SDS011;14204;51.262;5.488;2023-04-29T14:55:42;10.60;;;7.63;;
26536;SDS011;14204;51.262;5.488;2023-04-29T14:58:08;9.60;;;7.85;;
26536;SDS011;14204;51.262;5.488;2023-04-29T15:00:34;9.45;;;7.65;;
26536;SDS011;14204;51.262;5.488;2023-04-29T15:03:00;12.77;;;7.60;;
26536;SDS011;14204;51.262;5.488;2023-04-29T15:05:26;10.50;;;7.68;;
26536;SDS011;14204;51.262;5.488;2023-04-29T15:07:52;15.18;;;8.52;;